Time;durP1;ratioP1;P1;durP2;ratioP2;P2;SDS_P1;SDS_P2;PMS_P1;PMS_P2;Temp;Humidity;BMP_temperature;BMP_pressure;BME280_temperature;BME280_humidity;BME280_pressure;Samples;Min_cycle;Max_cycle;Signal;HPM_P1;HPM_P2
2023/04/13 00:00:38;;;;;;;3.88;2.40;;;;;;;;;;5091837;28;20047;-73
2023/04/13 00:03:05;;;;;;;6.80;3.05;;;;;;;;;;5093351;28;20055;-73
2023/04/13 00:05:33;;;;;;;4.57;2.45;;;;;;;;;;5093908;28;20048;-73
2023/04/13 00:08:03;;;;;;;4.70;2.40;;;;;;;;;;5093302;28;20048;-73
2023/04/13 00:10:35;;;;;;;3.83;2.55;;;;;;;;;;5093881;28;20059;-73
2023/04/13 00:13:04;;;;;;;3.25;2.40;;;;;;;;;;5093665;28;20051;-73
2023/04/13 00:15:31;;;;;;;3.17;2.30;;;;;;;;;;5092116;28;20044;-72
2023/04/13 00:17:57;;;;;;;5.10;2.45;;;;;;;;;;5093666;28;20056;-72
2023/04/13 00:20:23;;;;;;;3.45;2.60;;;;;;;;;;5097679;28;20091;-73
2023/04/13 00:22:49;;;;;;;3.08;2.35;;;;;;;;;;5097231;28;20040;-72
2023/04/13 00:25:15;;;;;;;3.22;2.30;;;;;;;;;;5095336;28;20043;-73
2023/04/13 00:27:42;;;;;;;4.80;2.55;;;;;;;;;;5097132;28;20054;-73
2023/04/13 00:30:15;;;;;;;3.10;2.50;;;;;;;;;;5097343;28;20493;-73
2023/04/13 00:32:42;;;;;;;2.90;2.60;;;;;;;;;;5097007;28;20036;-74
2023/04/13 00:35:17;;;;;;;3.78;2.40;;;;;;;;;;5095781;28;20055;-74
2023/04/13 00:37:45;;;;;;;4.07;2.60;;;;;;;;;;5097014;28;20127;-74
2023/04/13 00:40:12;;;;;;;4.35;2.80;;;;;;;;;;5095817;28;20083;-73
2023/04/13 00:42:45;;;;;;;5.82;2.90;;;;;;;;;;5096744;28;20123;-74
2023/04/13 00:45:12;;;;;;;4.63;2.83;;;;;;;;;;5096917;28;20090;-74
2023/04/13 00:47:40;;;;;;;4.65;2.50;;;;;;;;;;5095769;28;20051;-74
2023/04/13 00:50:06;;;;;;;5.25;2.40;;;;;;;;;;5096646;28;20611;-74
2023/04/13 00:52:39;;;;;;;3.03;2.20;;;;;;;;;;5099390;28;20058;-74
2023/04/13 00:55:06;;;;;;;4.13;2.13;;;;;;;;;;5100684;28;20039;-74
2023/04/13 00:57:33;;;;;;;3.70;2.40;;;;;;;;;;5098763;28;20444;-73
2023/04/13 00:59:59;;;;;;;4.50;2.28;;;;;;;;;;5096781;28;20051;-73
2023/04/13 01:02:25;;;;;;;2.72;2.20;;;;;;;;;;5096632;28;20044;-72
2023/04/13 01:04:53;;;;;;;3.83;2.10;;;;;;;;;;5096456;28;20048;-71
2023/04/13 01:07:19;;;;;;;4.65;2.10;;;;;;;;;;5096192;28;20179;-72
2023/04/13 01:10:12;;;;;;;3.35;2.00;;;;;;;;;;5094768;28;20041;-71
2023/04/13 01:12:58;;;;;;;3.45;2.20;;;;;;;;;;5064875;28;20439;-71
2023/04/13 01:15:26;;;;;;;4.20;2.30;;;;;;;;;;5096115;28;20040;-71
2023/04/13 01:17:57;;;;;;;3.22;2.10;;;;;;;;;;5096008;28;20478;-71
2023/04/13 01:20:25;;;;;;;2.30;1.98;;;;;;;;;;5095790;28;20097;-72
2023/04/13 01:23:01;;;;;;;4.63;2.40;;;;;;;;;;5077483;28;20052;-72
2023/04/13 01:25:27;;;;;;;3.33;2.00;;;;;;;;;;5086329;28;20048;-72
2023/04/13 01:27:55;;;;;;;3.58;2.20;;;;;;;;;;5095847;28;20043;-72
2023/04/13 01:30:22;;;;;;;5.05;2.42;;;;;;;;;;5076588;28;20040;-72
2023/04/13 01:32:51;;;;;;;3.35;2.30;;;;;;;;;;5075748;28;20398;-71
2023/04/13 01:35:19;;;;;;;2.97;2.15;;;;;;;;;;5074349;28;20040;-71
2023/04/13 01:37:51;;;;;;;3.33;2.17;;;;;;;;;;5075333;28;20049;-70
2023/04/13 01:40:18;;;;;;;4.10;2.10;;;;;;;;;;5086625;28;20386;-71
2023/04/13 01:42:44;;;;;;;3.00;2.05;;;;;;;;;;5095739;28;20075;-71
2023/04/13 01:45:15;;;;;;;4.47;2.50;;;;;;;;;;5095714;28;20079;-71
2023/04/13 01:47:43;;;;;;;3.85;2.10;;;;;;;;;;5095328;28;20083;-71
2023/04/13 01:50:18;;;;;;;3.42;2.30;;;;;;;;;;5095543;28;20128;-70
2023/04/13 01:52:44;;;;;;;3.70;2.40;;;;;;;;;;5095666;28;20051;-70
2023/04/13 01:55:12;;;;;;;3.10;2.25;;;;;;;;;;5081797;28;20051;-71
2023/04/13 01:57:39;;;;;;;5.43;2.45;;;;;;;;;;5093025;28;20048;-71
2023/04/13 02:00:11;;;;;;;6.15;2.88;;;;;;;;;;5093699;28;20032;-71
2023/04/13 02:02:37;;;;;;;3.60;2.72;;;;;;;;;;5095274;28;20055;-71
2023/04/13 02:05:03;;;;;;;5.45;3.10;;;;;;;;;;5095253;28;20047;-71
2023/04/13 02:07:29;;;;;;;5.00;3.10;;;;;;;;;;5094952;28;20481;-72
2023/04/13 02:09:55;;;;;;;5.60;3.03;;;;;;;;;;5093062;28;20044;-71
2023/04/13 02:12:21;;;;;;;4.97;2.88;;;;;;;;;;5094913;28;20036;-71
2023/04/13 02:14:47;;;;;;;4.10;2.90;;;;;;;;;;5088574;28;20040;-73
2023/04/13 02:17:14;;;;;;;5.90;3.05;;;;;;;;;;5074566;28;20049;-71
2023/04/13 02:19:40;;;;;;;4.07;2.90;;;;;;;;;;5074989;28;20540;-71
2023/04/13 02:22:06;;;;;;;5.20;3.00;;;;;;;;;;5074600;28;20044;-71
2023/04/13 02:24:32;;;;;;;4.55;2.90;;;;;;;;;;5074504;28;20082;-72
2023/04/13 02:26:58;;;;;;;4.72;2.83;;;;;;;;;;5074313;28;20053;-71
2023/04/13 02:29:24;;;;;;;4.25;2.95;;;;;;;;;;5073369;28;20121;-71
2023/04/13 02:31:50;;;;;;;3.15;2.80;;;;;;;;;;5074500;28;20121;-72
2023/04/13 02:34:16;;;;;;;4.53;2.92;;;;;;;;;;5074329;28;20040;-72
2023/04/13 02:36:42;;;;;;;4.68;3.33;;;;;;;;;;5074202;28;20036;-71
2023/04/13 02:39:09;;;;;;;4.07;3.33;;;;;;;;;;5074684;28;20044;-71
2023/04/13 02:41:35;;;;;;;3.90;3.10;;;;;;;;;;5073262;28;20044;-72
2023/04/13 02:44:01;;;;;;;4.43;3.42;;;;;;;;;;5074001;28;20044;-71
2023/04/13 02:46:28;;;;;;;4.47;3.55;;;;;;;;;;5073996;28;20048;-71
2023/04/13 02:48:55;;;;;;;5.63;3.40;;;;;;;;;;5074258;28;20040;-71
2023/04/13 02:51:21;;;;;;;5.38;3.50;;;;;;;;;;5079176;28;20044;-71
2023/04/13 02:53:47;;;;;;;5.03;3.45;;;;;;;;;;5093117;28;20484;-72
2023/04/13 02:56:13;;;;;;;6.38;3.30;;;;;;;;;;5094415;28;20040;-70
2023/04/13 02:58:40;;;;;;;4.78;3.50;;;;;;;;;;5094257;28;20148;-70
2023/04/13 03:01:06;;;;;;;4.95;3.30;;;;;;;;;;5094383;28;20048;-70
2023/04/13 03:03:32;;;;;;;4.78;3.22;;;;;;;;;;5094215;28;20044;-70
2023/04/13 03:06:00;;;;;;;5.35;3.25;;;;;;;;;;5094351;28;20040;-70
2023/04/13 03:08:26;;;;;;;5.38;3.00;;;;;;;;;;5085132;28;20044;-70
2023/04/13 03:10:53;;;;;;;4.50;3.03;;;;;;;;;;5072651;28;20076;-70
2023/04/13 03:13:19;;;;;;;5.75;2.83;;;;;;;;;;5074017;28;20071;-70
2023/04/13 03:15:45;;;;;;;4.43;2.60;;;;;;;;;;5074172;28;20045;-70
2023/04/13 03:18:12;;;;;;;3.67;2.30;;;;;;;;;;5074528;28;20057;-71
2023/04/13 03:20:38;;;;;;;3.20;2.20;;;;;;;;;;5093830;28;20502;-71
2023/04/13 03:23:04;;;;;;;3.78;2.00;;;;;;;;;;5091419;28;20539;-71
2023/04/13 03:25:30;;;;;;;5.78;2.00;;;;;;;;;;5094004;28;20094;-71
2023/04/13 03:27:56;;;;;;;1.70;1.58;;;;;;;;;;5089433;28;20467;-71
2023/04/13 03:30:22;;;;;;;2.42;1.50;;;;;;;;;;5074151;28;20041;-71
2023/04/13 03:32:48;;;;;;;1.33;1.23;;;;;;;;;;5073569;28;20080;-72
2023/04/13 03:35:14;;;;;;;2.35;1.30;;;;;;;;;;5073714;28;20045;-72
2023/04/13 03:37:41;;;;;;;3.58;1.13;;;;;;;;;;5089474;28;20127;-72
2023/04/13 03:40:09;;;;;;;1.50;1.40;;;;;;;;;;5093497;28;20074;-72
2023/04/13 03:42:35;;;;;;;2.67;1.45;;;;;;;;;;5093978;28;20044;-72
2023/04/13 03:45:01;;;;;;;1.88;1.60;;;;;;;;;;5092456;28;20102;-72
2023/04/13 03:47:27;;;;;;;3.60;1.40;;;;;;;;;;5092713;28;20047;-72
2023/04/13 03:49:53;;;;;;;2.92;1.58;;;;;;;;;;5093932;28;20040;-72
2023/04/13 03:52:20;;;;;;;2.50;1.90;;;;;;;;;;5092227;28;20119;-73
2023/04/13 03:54:46;;;;;;;3.50;2.40;;;;;;;;;;5096461;28;20044;-72
2023/04/13 03:57:12;;;;;;;2.92;2.30;;;;;;;;;;5097556;28;20474;-72
2023/04/13 03:59:38;;;;;;;4.78;2.90;;;;;;;;;;5099060;28;20044;-72
2023/04/13 04:02:04;;;;;;;4.80;2.97;;;;;;;;;;5102376;28;20390;-73
2023/04/13 04:04:30;;;;;;;4.65;2.92;;;;;;;;;;5099662;28;20050;-73
2023/04/13 04:06:56;;;;;;;4.60;3.17;;;;;;;;;;5095940;28;20052;-73
2023/04/13 04:09:23;;;;;;;5.32;3.40;;;;;;;;;;5097122;28;20044;-73
2023/04/13 04:11:49;;;;;;;4.18;3.40;;;;;;;;;;5097577;28;20044;-73
2023/04/13 04:14:16;;;;;;;6.22;3.30;;;;;;;;;;5097492;28;20193;-73
2023/04/13 04:16:42;;;;;;;5.38;3.30;;;;;;;;;;5096966;28;20448;-73
2023/04/13 04:19:08;;;;;;;5.00;3.47;;;;;;;;;;5096995;28;20482;-73
2023/04/13 04:21:34;;;;;;;5.30;3.17;;;;;;;;;;5089316;28;20094;-73
2023/04/13 04:24:01;;;;;;;6.47;3.63;;;;;;;;;;5077117;28;20049;-73
2023/04/13 04:26:28;;;;;;;5.15;3.33;;;;;;;;;;5079288;28;20080;-73
2023/04/13 04:29:00;;;;;;;4.65;3.10;;;;;;;;;;5084453;28;20115;-73
2023/04/13 04:31:33;;;;;;;5.93;2.95;;;;;;;;;;5076688;28;20044;-73
2023/04/13 04:33:59;;;;;;;3.75;2.80;;;;;;;;;;5088334;28;20048;-73
2023/04/13 04:36:25;;;;;;;5.82;3.05;;;;;;;;;;5095686;28;20044;-73
2023/04/13 04:38:56;;;;;;;4.50;3.30;;;;;;;;;;5097142;28;20051;-73
2023/04/13 04:41:23;;;;;;;5.03;3.13;;;;;;;;;;5097089;28;20044;-73
2023/04/13 04:43:49;;;;;;;6.47;3.25;;;;;;;;;;5096651;28;20127;-73
2023/04/13 04:46:15;;;;;;;6.43;3.20;;;;;;;;;;5096823;28;20085;-73
2023/04/13 04:48:41;;;;;;;6.60;3.25;;;;;;;;;;5096249;28;20495;-73
2023/04/13 04:51:07;;;;;;;5.72;3.63;;;;;;;;;;5094205;28;20040;-73
2023/04/13 04:53:34;;;;;;;7.70;3.20;;;;;;;;;;5096929;28;20170;-73
2023/04/13 04:56:00;;;;;;;6.28;3.38;;;;;;;;;;5096478;28;20040;-73
2023/04/13 04:58:26;;;;;;;7.97;3.35;;;;;;;;;;5091873;28;20061;-73
2023/04/13 05:00:52;;;;;;;5.38;3.40;;;;;;;;;;5090287;28;20044;-73
2023/04/13 05:03:19;;;;;;;7.10;3.60;;;;;;;;;;5096508;28;20123;-73
2023/04/13 05:05:46;;;;;;;6.55;3.42;;;;;;;;;;5089920;28;20101;-73
2023/04/13 05:08:12;;;;;;;6.78;3.40;;;;;;;;;;5075826;28;20045;-73
2023/04/13 05:10:44;;;;;;;8.23;3.63;;;;;;;;;;5075964;28;20064;-73
2023/04/13 05:13:10;;;;;;;6.00;3.15;;;;;;;;;;5076456;28;20056;-73
2023/04/13 05:15:36;;;;;;;7.97;3.30;;;;;;;;;;5074710;28;20117;-73
2023/04/13 05:18:04;;;;;;;7.75;2.90;;;;;;;;;;5075342;28;20422;-73
2023/04/13 05:20:33;;;;;;;8.63;3.15;;;;;;;;;;5082429;28;20482;-73
2023/04/13 05:22:59;;;;;;;6.97;3.30;;;;;;;;;;5077735;28;20044;-73
2023/04/13 05:25:25;;;;;;;10.88;3.20;;;;;;;;;;5075571;28;20086;-73
2023/04/13 05:27:52;;;;;;;6.78;3.08;;;;;;;;;;5075912;28;20036;-72
2023/04/13 05:30:18;;;;;;;7.40;2.80;;;;;;;;;;5075389;28;20487;-73
2023/04/13 05:32:44;;;;;;;8.07;3.10;;;;;;;;;;5075718;28;20084;-72
2023/04/13 05:35:10;;;;;;;5.53;3.10;;;;;;;;;;5082948;28;20478;-73
2023/04/13 05:37:39;;;;;;;11.57;3.63;;;;;;;;;;5095972;28;20047;-73
2023/04/13 05:40:12;;;;;;;8.35;2.83;;;;;;;;;;5095566;28;20051;-72
2023/04/13 05:42:38;;;;;;;6.88;2.90;;;;;;;;;;5095650;28;20048;-72
2023/04/13 05:45:08;;;;;;;9.20;3.22;;;;;;;;;;5095112;28;20375;-72
2023/04/13 05:47:35;;;;;;;9.02;3.25;;;;;;;;;;5094023;28;20482;-72
2023/04/13 05:50:01;;;;;;;8.63;3.22;;;;;;;;;;5095568;28;20048;-72
2023/04/13 05:52:27;;;;;;;9.27;3.15;;;;;;;;;;5095388;28;20036;-73
2023/04/13 05:54:53;;;;;;;7.47;2.95;;;;;;;;;;5095193;28;20169;-72
2023/04/13 05:57:20;;;;;;;5.43;2.97;;;;;;;;;;5095338;28;20490;-72
2023/04/13 05:59:46;;;;;;;7.57;2.95;;;;;;;;;;5076325;28;20086;-72
2023/04/13 06:02:12;;;;;;;6.70;2.78;;;;;;;;;;5093259;28;20040;-72
2023/04/13 06:04:40;;;;;;;7.45;2.90;;;;;;;;;;5094004;28;20058;-72
2023/04/13 06:07:06;;;;;;;4.55;2.50;;;;;;;;;;5093473;28;20115;-72
2023/04/13 06:09:32;;;;;;;8.75;2.88;;;;;;;;;;5093991;28;20102;-71
2023/04/13 06:11:58;;;;;;;8.10;2.78;;;;;;;;;;5095191;28;20044;-72
2023/04/13 06:14:24;;;;;;;6.10;2.53;;;;;;;;;;5093413;28;20036;-72
2023/04/13 06:16:51;;;;;;;4.43;3.10;;;;;;;;;;5094864;28;20467;-73
2023/04/13 06:19:17;;;;;;;5.32;3.00;;;;;;;;;;5095255;28;20193;-73
2023/04/13 06:21:43;;;;;;;8.38;3.25;;;;;;;;;;5086564;28;20044;-73
2023/04/13 06:24:10;;;;;;;7.70;3.45;;;;;;;;;;5075443;28;20044;-73
2023/04/13 06:26:36;;;;;;;5.75;3.22;;;;;;;;;;5074509;28;20497;-72
2023/04/13 06:29:02;;;;;;;4.55;3.25;;;;;;;;;;5086036;28;20170;-72
2023/04/13 06:31:28;;;;;;;5.40;3.10;;;;;;;;;;5094216;28;20610;-72
2023/04/13 06:33:54;;;;;;;6.03;3.95;;;;;;;;;;5093917;28;20122;-72
2023/04/13 06:36:20;;;;;;;8.10;3.63;;;;;;;;;;5094545;28;20040;-71
2023/04/13 06:38:46;;;;;;;9.45;3.45;;;;;;;;;;5094234;28;20048;-72
2023/04/13 06:41:12;;;;;;;7.82;3.70;;;;;;;;;;5094445;28;20051;-72
2023/04/13 06:43:39;;;;;;;9.73;3.97;;;;;;;;;;5094052;28;20101;-72
2023/04/13 06:46:05;;;;;;;6.63;3.67;;;;;;;;;;5094527;28;20087;-72
2023/04/13 06:48:31;;;;;;;10.52;4.20;;;;;;;;;;5093031;28;20040;-71
2023/04/13 06:50:58;;;;;;;11.48;4.40;;;;;;;;;;5089688;28;20379;-73
2023/04/13 06:53:24;;;;;;;5.05;3.90;;;;;;;;;;5073904;28;20498;-72
2023/04/13 06:55:51;;;;;;;9.55;4.03;;;;;;;;;;5073948;28;20246;-72
2023/04/13 06:58:17;;;;;;;10.25;3.90;;;;;;;;;;5081426;28;20040;-72
2023/04/13 07:00:43;;;;;;;9.48;3.92;;;;;;;;;;5085967;28;20094;-73
2023/04/13 07:03:09;;;;;;;9.63;4.72;;;;;;;;;;5083379;28;20036;-74
2023/04/13 07:05:35;;;;;;;7.03;4.00;;;;;;;;;;5092976;28;20047;-74
2023/04/13 07:08:01;;;;;;;6.65;3.45;;;;;;;;;;5095689;28;20048;-74
2023/04/13 07:10:28;;;;;;;6.65;3.60;;;;;;;;;;5096026;28;20052;-74
2023/04/13 07:12:54;;;;;;;5.28;3.53;;;;;;;;;;5090920;28;20048;-74
2023/04/13 07:15:20;;;;;;;8.45;3.42;;;;;;;;;;5088580;28;20395;-75
2023/04/13 07:17:46;;;;;;;12.38;3.70;;;;;;;;;;5076114;28;20077;-74
2023/04/13 07:20:12;;;;;;;4.78;3.10;;;;;;;;;;5075644;28;20052;-74
2023/04/13 07:22:38;;;;;;;8.60;3.47;;;;;;;;;;5078885;28;20119;-74
2023/04/13 07:25:04;;;;;;;7.80;3.28;;;;;;;;;;5080866;28;20120;-74
2023/04/13 07:27:32;;;;;;;10.10;3.40;;;;;;;;;;5082995;28;20490;-74
2023/04/13 07:29:58;;;;;;;7.63;3.17;;;;;;;;;;5092518;28;20070;-74
2023/04/13 07:32:26;;;;;;;5.35;3.15;;;;;;;;;;5074453;28;20052;-74
2023/04/13 07:34:52;;;;;;;8.27;3.00;;;;;;;;;;5079518;28;20040;-75
2023/04/13 07:37:18;;;;;;;7.63;2.70;;;;;;;;;;5093344;28;20445;-74
2023/04/13 07:39:44;;;;;;;7.07;2.50;;;;;;;;;;5093572;28;20503;-74
2023/04/13 07:42:11;;;;;;;5.18;2.50;;;;;;;;;;5093518;28;20040;-72
2023/04/13 07:44:37;;;;;;;7.70;2.78;;;;;;;;;;5092188;28;20040;-73
2023/04/13 07:47:03;;;;;;;4.07;2.10;;;;;;;;;;5088180;28;20040;-72
2023/04/13 07:49:29;;;;;;;5.93;2.38;;;;;;;;;;5091318;28;20040;-72
2023/04/13 07:51:55;;;;;;;4.28;3.00;;;;;;;;;;5081968;28;20036;-78
2023/04/13 07:54:21;;;;;;;7.65;2.67;;;;;;;;;;5088762;28;20486;-74
2023/04/13 07:56:47;;;;;;;8.60;2.80;;;;;;;;;;5078041;28;20044;-75
2023/04/13 07:59:13;;;;;;;5.70;2.65;;;;;;;;;;5084531;28;20051;-75
2023/04/13 08:01:39;;;;;;;4.43;2.35;;;;;;;;;;5072992;28;20048;-75
2023/04/13 08:04:05;;;;;;;5.28;2.47;;;;;;;;;;5057010;28;20395;-75
2023/04/13 08:06:32;;;;;;;6.07;2.20;;;;;;;;;;5072821;28;20403;-76
2023/04/13 08:08:58;;;;;;;6.03;2.50;;;;;;;;;;5073201;28;20045;-76
2023/04/13 08:11:24;;;;;;;9.77;2.90;;;;;;;;;;5073132;28;20040;-76
2023/04/13 08:13:50;;;;;;;2.97;2.00;;;;;;;;;;5073297;28;20041;-76
2023/04/13 08:16:16;;;;;;;4.25;1.80;;;;;;;;;;5081855;28;20040;-76
2023/04/13 08:18:42;;;;;;;4.28;1.83;;;;;;;;;;5072707;28;20229;-76
2023/04/13 08:21:16;;;;;;;4.10;1.70;;;;;;;;;;5085307;28;20435;-76
2023/04/13 08:23:42;;;;;;;2.28;1.40;;;;;;;;;;5077976;28;20041;-77
2023/04/13 08:26:16;;;;;;;2.13;1.60;;;;;;;;;;5073411;28;20045;-76
2023/04/13 08:28:42;;;;;;;3.03;1.48;;;;;;;;;;5079546;28;20521;-77
2023/04/13 08:31:08;;;;;;;2.85;1.50;;;;;;;;;;5091904;28;20398;-76
2023/04/13 08:33:34;;;;;;;1.85;1.35;;;;;;;;;;5090256;28;20361;-76
2023/04/13 08:36:01;;;;;;;3.78;1.70;;;;;;;;;;5089703;28;20032;-76
2023/04/13 08:38:27;;;;;;;3.33;1.60;;;;;;;;;;5086942;28;20127;-76
2023/04/13 08:40:53;;;;;;;3.53;1.65;;;;;;;;;;5087788;28;20036;-76
2023/04/13 08:43:19;;;;;;;3.97;1.88;;;;;;;;;;5076066;28;20402;-76
2023/04/13 08:45:46;;;;;;;2.47;1.58;;;;;;;;;;5077006;28;20105;-76
2023/04/13 08:48:14;;;;;;;3.17;1.70;;;;;;;;;;5076538;28;20113;-76
2023/04/13 08:50:40;;;;;;;2.20;1.88;;;;;;;;;;5076095;28;20442;-76
2023/04/13 08:53:07;;;;;;;3.03;1.50;;;;;;;;;;5076230;28;20063;-76
2023/04/13 08:55:33;;;;;;;2.60;1.50;;;;;;;;;;5080253;28;20047;-76
2023/04/13 08:58:03;;;;;;;2.90;1.30;;;;;;;;;;5092788;28;20133;-76
2023/04/13 09:00:29;;;;;;;2.53;1.40;;;;;;;;;;5086252;28;20044;-76
2023/04/13 09:02:59;;;;;;;1.92;1.42;;;;;;;;;;5096292;28;20123;-76
2023/04/13 09:05:26;;;;;;;2.63;1.20;;;;;;;;;;5079336;28;20098;-76
2023/04/13 09:07:55;;;;;;;3.88;1.38;;;;;;;;;;5079600;28;20478;-76
2023/04/13 09:10:22;;;;;;;4.00;1.52;;;;;;;;;;5096267;28;20479;-76
2023/04/13 09:12:52;;;;;;;1.65;1.17;;;;;;;;;;5079201;28;20475;-76
2023/04/13 09:15:18;;;;;;;3.70;1.20;;;;;;;;;;5075796;28;20140;-76
2023/04/13 09:17:44;;;;;;;5.28;1.70;;;;;;;;;;5094248;28;20560;-76
2023/04/13 09:20:15;;;;;;;2.90;1.45;;;;;;;;;;5096029;28;20043;-76
2023/04/13 09:22:42;;;;;;;1.80;1.45;;;;;;;;;;5095920;28;20048;-76
2023/04/13 09:25:19;;;;;;;4.45;1.35;;;;;;;;;;5093118;28;20044;-76
2023/04/13 09:27:45;;;;;;;3.03;1.40;;;;;;;;;;5080995;28;20051;-76
2023/04/13 09:30:11;;;;;;;4.50;1.70;;;;;;;;;;5089256;28;20040;-76
2023/04/13 09:32:37;;;;;;;3.63;1.80;;;;;;;;;;5090895;28;20060;-76
2023/04/13 09:35:05;;;;;;;4.57;1.90;;;;;;;;;;5085607;28;20058;-76
2023/04/13 09:37:31;;;;;;;3.72;1.80;;;;;;;;;;5079512;28;20487;-76
2023/04/13 09:40:09;;;;;;;6.07;1.60;;;;;;;;;;5091527;28;20044;-76
2023/04/13 09:42:35;;;;;;;3.70;1.73;;;;;;;;;;5075425;28;20055;-76
2023/04/13 09:45:01;;;;;;;3.33;1.65;;;;;;;;;;5075736;28;20052;-76
2023/04/13 09:47:35;;;;;;;4.90;1.60;;;;;;;;;;5075384;28;20102;-79
2023/04/13 09:50:03;;;;;;;5.40;1.85;;;;;;;;;;5077622;28;20047;-76
2023/04/13 09:52:30;;;;;;;4.40;1.80;;;;;;;;;;5082090;28;20375;-76
2023/04/13 09:55:00;;;;;;;3.55;1.73;;;;;;;;;;5081871;28;20072;-76
2023/04/13 09:57:27;;;;;;;4.40;1.70;;;;;;;;;;5089568;28;20040;-76
2023/04/13 09:59:53;;;;;;;4.03;1.88;;;;;;;;;;5079233;28;20455;-76
2023/04/13 10:02:19;;;;;;;6.28;1.80;;;;;;;;;;5079053;28;20044;-76
2023/04/13 10:04:46;;;;;;;5.90;1.70;;;;;;;;;;5095022;28;20386;-76
2023/04/13 10:07:12;;;;;;;4.05;2.00;;;;;;;;;;5094976;28;20394;-76
2023/04/13 10:09:40;;;;;;;2.20;1.58;;;;;;;;;;5094847;28;20126;-76
2023/04/13 10:12:10;;;;;;;6.00;1.98;;;;;;;;;;5087900;28;20045;-76
2023/04/13 10:14:38;;;;;;;6.72;2.10;;;;;;;;;;5080367;28;20440;-76
2023/04/13 10:17:04;;;;;;;4.50;1.95;;;;;;;;;;5096284;28;20040;-76
2023/04/13 10:19:33;;;;;;;5.68;2.30;;;;;;;;;;5101254;28;20044;-76
2023/04/13 10:22:00;;;;;;;5.60;2.15;;;;;;;;;;5099666;28;20051;-75
2023/04/13 10:24:27;;;;;;;4.97;2.17;;;;;;;;;;5095344;28;20040;-75
2023/04/13 10:26:55;;;;;;;3.15;2.08;;;;;;;;;;5074784;28;20094;-75
2023/04/13 10:29:31;;;;;;;3.60;2.00;;;;;;;;;;5074659;28;20049;-75
2023/04/13 10:32:01;;;;;;;3.28;1.83;;;;;;;;;;5074440;28;20123;-75
2023/04/13 10:34:28;;;;;;;3.92;1.80;;;;;;;;;;5074539;28;20059;-75
2023/04/13 10:37:02;;;;;;;5.32;1.70;;;;;;;;;;5084201;28;20482;-76
2023/04/13 10:39:29;;;;;;;6.50;1.95;;;;;;;;;;5094807;28;20119;-76
2023/04/13 10:42:05;;;;;;;4.68;2.13;;;;;;;;;;5094504;28;20036;-76
2023/04/13 10:44:41;;;;;;;5.43;2.30;;;;;;;;;;5094398;28;20044;-76
2023/04/13 10:47:07;;;;;;;3.08;1.90;;;;;;;;;;5086122;28;20115;-76
2023/04/13 10:49:35;;;;;;;3.85;1.90;;;;;;;;;;5073885;28;20046;-76
2023/04/13 10:52:01;;;;;;;3.30;1.30;;;;;;;;;;5080082;28;20044;-76
2023/04/13 10:54:29;;;;;;;3.90;1.55;;;;;;;;;;5094303;28;20048;-76
2023/04/13 10:56:58;;;;;;;4.45;1.90;;;;;;;;;;5084483;28;20115;-77
2023/04/13 10:59:44;;;;;;;5.78;1.77;;;;;;;;;;5072602;28;20443;-76
2023/04/13 11:02:11;;;;;;;2.95;1.50;;;;;;;;;;5073271;28;20041;-74
2023/04/13 11:04:42;;;;;;;2.97;1.60;;;;;;;;;;5085273;28;20044;-74
2023/04/13 11:07:15;;;;;;;3.28;1.95;;;;;;;;;;5085881;28;20497;-75
2023/04/13 11:09:51;;;;;;;2.72;1.80;;;;;;;;;;5089278;28;20079;-75
2023/04/13 11:12:18;;;;;;;5.15;2.75;;;;;;;;;;5090690;28;20482;-75
2023/04/13 11:14:48;;;;;;;1.80;1.52;;;;;;;;;;5073559;28;20044;-74
2023/04/13 11:17:15;;;;;;;2.08;1.80;;;;;;;;;;5089383;28;20055;-74
2023/04/13 11:19:51;;;;;;;3.35;1.50;;;;;;;;;;5056961;28;20124;-75
2023/04/13 11:22:20;;;;;;;2.58;1.90;;;;;;;;;;5077243;28;20090;-75
2023/04/13 11:24:46;;;;;;;3.30;1.60;;;;;;;;;;5072650;28;20542;-75
2023/04/13 11:27:16;;;;;;;2.55;1.45;;;;;;;;;;5080423;28;20040;-75
2023/04/13 11:29:42;;;;;;;3.55;1.40;;;;;;;;;;5089207;28;20505;-75
2023/04/13 11:32:18;;;;;;;3.50;1.40;;;;;;;;;;5088313;28;20044;-76
2023/04/13 11:34:44;;;;;;;3.42;1.83;;;;;;;;;;5072566;28;20044;-77
2023/04/13 11:37:11;;;;;;;2.90;1.67;;;;;;;;;;5088832;28;20064;-75
2023/04/13 11:39:38;;;;;;;5.55;1.70;;;;;;;;;;5072389;28;20045;-77
2023/04/13 11:42:05;;;;;;;5.20;1.70;;;;;;;;;;5058198;28;20494;-74
2023/04/13 11:44:33;;;;;;;6.32;2.15;;;;;;;;;;5078988;28;20048;-75
2023/04/13 11:47:01;;;;;;;5.85;1.98;;;;;;;;;;5090897;28;20044;-74
2023/04/13 11:49:27;;;;;;;6.50;1.88;;;;;;;;;;5092235;28;20097;-75
2023/04/13 11:51:53;;;;;;;3.03;2.00;;;;;;;;;;5092328;28;20055;-75
2023/04/13 11:54:19;;;;;;;6.57;2.65;;;;;;;;;;5091745;28;20059;-75
2023/04/13 11:56:46;;;;;;;8.02;2.78;;;;;;;;;;5075734;28;20044;-75
2023/04/13 11:59:12;;;;;;;10.60;3.17;;;;;;;;;;5093546;28;20051;-75
2023/04/13 12:01:39;;;;;;;9.73;3.10;;;;;;;;;;5093641;28;20117;-75
2023/04/13 12:04:05;;;;;;;7.93;3.22;;;;;;;;;;5093633;28;20066;-75
2023/04/13 12:06:32;;;;;;;14.10;3.67;;;;;;;;;;5093363;28;20450;-75
2023/04/13 12:09:01;;;;;;;14.93;3.15;;;;;;;;;;5081204;28;20162;-75
2023/04/13 12:11:37;;;;;;;12.13;3.20;;;;;;;;;;5073466;28;20040;-75
2023/04/13 12:14:03;;;;;;;9.50;3.03;;;;;;;;;;5075339;28;20049;-75
2023/04/13 12:16:33;;;;;;;9.07;3.38;;;;;;;;;;5075586;28;20044;-75
2023/04/13 12:19:09;;;;;;;11.98;2.97;;;;;;;;;;5075473;28;20056;-75
2023/04/13 12:21:35;;;;;;;15.10;3.63;;;;;;;;;;5077383;28;20124;-75
2023/04/13 12:24:02;;;;;;;8.07;3.03;;;;;;;;;;5078479;28;20379;-75
2023/04/13 12:26:39;;;;;;;13.27;2.85;;;;;;;;;;5097481;28;20047;-75
2023/04/13 12:29:05;;;;;;;9.35;3.28;;;;;;;;;;5097272;28;20043;-75
2023/04/13 12:31:39;;;;;;;13.38;4.15;;;;;;;;;;5097212;28;20036;-75
2023/04/13 12:34:06;;;;;;;12.95;3.65;;;;;;;;;;5081078;28;20492;-75
2023/04/13 12:36:34;;;;;;;11.57;2.78;;;;;;;;;;5077099;28;20091;-74
2023/04/13 12:39:01;;;;;;;8.43;3.45;;;;;;;;;;5076323;28;20101;-74
2023/04/13 12:41:27;;;;;;;9.70;2.83;;;;;;;;;;5076616;28;20470;-74
2023/04/13 12:43:53;;;;;;;10.57;2.97;;;;;;;;;;5075375;28;20060;-74
2023/04/13 12:46:19;;;;;;;11.10;3.00;;;;;;;;;;5076252;28;20052;-75
2023/04/13 12:48:46;;;;;;;11.25;3.38;;;;;;;;;;5074704;28;20051;-74
2023/04/13 12:51:12;;;;;;;11.07;3.28;;;;;;;;;;5076565;28;20044;-74
2023/04/13 12:53:38;;;;;;;12.25;3.47;;;;;;;;;;5077331;28;20048;-74
2023/04/13 12:56:04;;;;;;;11.45;3.85;;;;;;;;;;5094166;28;20036;-74
2023/04/13 12:58:30;;;;;;;8.13;3.28;;;;;;;;;;5096303;28;20063;-74
2023/04/13 13:00:56;;;;;;;7.95;3.08;;;;;;;;;;5096514;28;20040;-74
2023/04/13 13:03:23;;;;;;;11.02;3.13;;;;;;;;;;5095470;28;20127;-74
2023/04/13 13:05:49;;;;;;;9.60;3.28;;;;;;;;;;5095230;28;20463;-74
2023/04/13 13:08:15;;;;;;;12.65;3.38;;;;;;;;;;5096268;28;20044;-74
2023/04/13 13:10:41;;;;;;;10.60;3.13;;;;;;;;;;5094443;28;20059;-74
2023/04/13 13:13:07;;;;;;;9.77;3.30;;;;;;;;;;5092759;28;20421;-74
2023/04/13 13:15:34;;;;;;;9.73;3.08;;;;;;;;;;5095172;28;20048;-74
2023/04/13 13:18:02;;;;;;;9.55;3.05;;;;;;;;;;5095076;28;20387;-74
2023/04/13 13:20:29;;;;;;;11.00;3.22;;;;;;;;;;5096390;28;20058;-74
2023/04/13 13:22:55;;;;;;;12.13;3.47;;;;;;;;;;5096187;28;20411;-74
2023/04/13 13:25:21;;;;;;;14.30;3.65;;;;;;;;;;5094180;28;20051;-75
2023/04/13 13:27:47;;;;;;;10.80;2.97;;;;;;;;;;5098321;28;20069;-75
2023/04/13 13:30:14;;;;;;;13.02;3.60;;;;;;;;;;5101371;28;20519;-75
2023/04/13 13:32:40;;;;;;;12.20;3.25;;;;;;;;;;5098093;28;20052;-75
2023/04/13 13:35:09;;;;;;;10.65;3.28;;;;;;;;;;5096191;28;20043;-75
2023/04/13 13:37:35;;;;;;;10.15;3.17;;;;;;;;;;5094285;28;20482;-75
2023/04/13 13:40:11;;;;;;;9.57;3.20;;;;;;;;;;5094672;28;20570;-77
2023/04/13 13:42:37;;;;;;;8.88;2.80;;;;;;;;;;5086406;28;20040;-75
2023/04/13 13:45:03;;;;;;;10.38;3.10;;;;;;;;;;5095972;28;20044;-75
2023/04/13 13:47:29;;;;;;;12.35;3.45;;;;;;;;;;5096473;28;20067;-75
2023/04/13 13:49:55;;;;;;;10.73;3.45;;;;;;;;;;5095108;28;20592;-75
2023/04/13 13:52:21;;;;;;;9.00;3.13;;;;;;;;;;5079586;28;20215;-75
2023/04/13 13:54:48;;;;;;;9.82;3.20;;;;;;;;;;5075343;28;20116;-74
2023/04/13 13:57:15;;;;;;;12.65;3.20;;;;;;;;;;5084854;28;20397;-74
2023/04/13 13:59:41;;;;;;;10.25;2.75;;;;;;;;;;5095558;28;20052;-74
2023/04/13 14:02:07;;;;;;;10.25;3.10;;;;;;;;;;5082061;28;20036;-74
2023/04/13 14:04:33;;;;;;;10.65;3.00;;;;;;;;;;5075161;28;20074;-74
2023/04/13 14:06:59;;;;;;;9.65;2.97;;;;;;;;;;5074602;28;20486;-74
2023/04/13 14:09:26;;;;;;;9.10;2.90;;;;;;;;;;5074541;28;20048;-74
2023/04/13 14:11:52;;;;;;;9.95;3.70;;;;;;;;;;5075180;28;20127;-75
2023/04/13 14:14:18;;;;;;;7.88;2.92;;;;;;;;;;5074848;28;20040;-74
2023/04/13 14:16:44;;;;;;;13.02;3.00;;;;;;;;;;5073520;28;20045;-74
2023/04/13 14:19:10;;;;;;;9.55;2.63;;;;;;;;;;5074722;28;20056;-74
2023/04/13 14:21:36;;;;;;;8.95;2.92;;;;;;;;;;5074560;28;20124;-74
2023/04/13 14:24:02;;;;;;;11.68;3.03;;;;;;;;;;5074443;28;20418;-74
2023/04/13 14:26:28;;;;;;;5.55;2.80;;;;;;;;;;5076154;28;20048;-75
2023/04/13 14:28:54;;;;;;;7.32;3.30;;;;;;;;;;5094615;28;20044;-75
2023/04/13 14:31:21;;;;;;;9.50;2.97;;;;;;;;;;5093414;28;20055;-74
2023/04/13 14:33:47;;;;;;;8.70;2.80;;;;;;;;;;5094814;28;20144;-75
2023/04/13 14:36:14;;;;;;;10.73;3.00;;;;;;;;;;5093006;28;20140;-75
2023/04/13 14:38:41;;;;;;;7.40;2.85;;;;;;;;;;5094598;28;20048;-75
2023/04/13 14:41:07;;;;;;;6.93;2.60;;;;;;;;;;5093307;28;20040;-75